モンテビデオ の空港の天気 - METARとTAF

カラスコ国際空港 ( SUMU / MVD ) - ウルグアイ モンテビデオ
飛行場実況気象(Metar)
観測時間10/23 23:00 UYT (10/24 02:00 UTC)
風向・風速南 6m/s
視程10km以上
天気現象
なし
気温14℃
湿度77%
気圧1009hPa
METARSUMU 240200Z 19011KT CAVOK 14/10 Q1009 NOSIG
過去の天気等 Google飛行場航空写真 Wunderground天気予報

過去48時間のMETAR

飛行場予報(TAF)
発表時間: 10/23 20:30 UYT (10/23 23:30 UTC)
予報対象時間: 23日21時 UYT ~ 24日21時 UYT
風向・風速南西 5m/s
視程10km以上
全天の4割程度の雲 雲底高度 610m
23日21時 UYT ~ 24日3時 UYT に 確率 30% で一時的に
視程3000m
天気現象雨 もや
全天の8割程度の雲 雲底高度 300m
全天の8割程度の雲 雲底高度 1830m
23日21時 UYT ~ 23日24時 UYT に 確率 30% で一時的に
天気現象
少しの積乱雲 雲底高度 1220m
TAF SUMU 232330Z 2400/2424 23010KT 9999 SCT020 TX20/2418Z TN12/2410Z
PROB30 TEMPO 2400/2406 3000 RA BR BKN010 BKN060
PROB30 TEMPO 2400/2403 TS FEW040CB